createdAt,value
2022-12-31T00:03:31.393Z,4.8
2022-12-31T00:05:34.871Z,5.2
2022-12-31T00:09:45.031Z,4.1
2022-12-31T00:11:48.539Z,4.8
2022-12-31T00:12:51.840Z,4.2
2022-12-31T00:14:55.361Z,4.7
2022-12-31T00:16:58.985Z,4.2
2022-12-31T00:19:02.459Z,3.1
2022-12-31T00:21:09.113Z,3
2022-12-31T00:23:12.603Z,2.8
2022-12-31T00:25:16.155Z,2.5
2022-12-31T00:27:19.697Z,2.3
2022-12-31T00:29:23.216Z,2
2022-12-31T00:35:36.956Z,1.4
2022-12-31T00:39:44.056Z,1.7
2022-12-31T00:41:47.601Z,1.5
2022-12-31T00:43:51.137Z,2
2022-12-31T00:45:54.764Z,2.1
2022-12-31T00:47:58.253Z,2.1
2022-12-31T00:50:04.880Z,2
2022-12-31T00:56:15.506Z,2
2022-12-31T00:58:19.037Z,1.7
2022-12-31T01:04:32.706Z,1.7
2022-12-31T01:06:36.232Z,1.3
2022-12-31T01:08:39.771Z,1.5
2022-12-31T01:11:01.837Z,1.4
2022-12-31T01:13:05.405Z,1.6
2022-12-31T01:15:08.955Z,1.3
2022-12-31T01:17:15.537Z,1.2
2022-12-31T01:19:19.057Z,1.5
2022-12-31T01:21:22.650Z,1.2
2022-12-31T01:23:26.192Z,1.3
2022-12-31T01:25:29.695Z,1.2
2022-12-31T01:27:33.236Z,1.4
2022-12-31T01:29:36.789Z,1.3
2022-12-31T01:31:43.420Z,1.2
2022-12-31T01:33:46.958Z,1.3
2022-12-31T01:35:50.489Z,1.3
2022-12-31T01:37:54.032Z,1.4
2022-12-31T01:39:57.570Z,1.2
2022-12-31T01:42:01.104Z,1.2
2022-12-31T01:50:18.329Z,1.1
2022-12-31T01:52:21.909Z,1
2022-12-31T01:54:25.453Z,1.4
2022-12-31T01:56:29.019Z,0.9
2022-12-31T01:58:32.643Z,1.2
2022-12-31T02:00:39.185Z,1
2022-12-31T02:02:42.852Z,1.3
2022-12-31T02:04:46.231Z,0.9
2022-12-31T02:05:49.552Z,1.2
2022-12-31T02:07:53.115Z,1.6
2022-12-31T02:09:56.631Z,1.7
2022-12-31T02:12:00.279Z,2.4
2022-12-31T02:14:06.806Z,2.5
2022-12-31T02:16:10.397Z,2.6
2022-12-31T02:18:14.059Z,2.5
2022-12-31T02:20:17.634Z,2.2
2022-12-31T02:22:21.167Z,2.2
2022-12-31T02:24:24.700Z,2.1
2022-12-31T02:26:28.249Z,2.3
2022-12-31T02:28:34.860Z,2.4
2022-12-31T02:30:38.499Z,2.8
2022-12-31T02:32:41.949Z,2.2
2022-12-31T02:34:45.521Z,2.4
2022-12-31T02:36:49.070Z,2.5
2022-12-31T02:38:52.596Z,2.5
2022-12-31T02:40:56.201Z,2.9
2022-12-31T02:43:02.791Z,2.8
2022-12-31T02:45:06.316Z,3.3
2022-12-31T02:47:09.888Z,3
2022-12-31T02:49:13.435Z,2.9
2022-12-31T02:51:16.985Z,2.9
2022-12-31T02:53:20.510Z,3.3
2022-12-31T02:55:24.054Z,3.3
2022-12-31T02:57:30.771Z,4
2022-12-31T02:59:34.256Z,3.3
2022-12-31T03:02:41.129Z,3.7
2022-12-31T03:04:44.650Z,2.9
2022-12-31T03:06:48.223Z,3.4
2022-12-31T03:08:51.807Z,3.2
2022-12-31T03:10:58.411Z,3.4
2022-12-31T03:13:02.066Z,4
2022-12-31T03:19:12.663Z,3.8
2022-12-31T03:21:16.201Z,3.7
2022-12-31T03:23:19.737Z,4.1
2022-12-31T03:25:26.392Z,4.1
2022-12-31T03:27:29.899Z,3.5
2022-12-31T03:29:33.490Z,3.9
2022-12-31T03:31:37.027Z,2.7
2022-12-31T03:33:40.631Z,2.8
2022-12-31T03:35:44.107Z,2.6
2022-12-31T03:37:47.699Z,2.1
2022-12-31T03:39:54.286Z,2.1
2022-12-31T03:41:57.880Z,1.7
2022-12-31T03:44:01.427Z,2.7
2022-12-31T03:50:12.116Z,1.7
2022-12-31T03:52:15.677Z,0.9
2022-12-31T03:54:22.334Z,1
2022-12-31T03:56:25.878Z,0.7
2022-12-31T03:58:29.452Z,0.9
2022-12-31T03:59:32.735Z,0.7
2022-12-31T04:01:36.440Z,0.7
2022-12-31T04:03:39.869Z,1
2022-12-31T04:05:43.432Z,0.8
2022-12-31T04:07:50.027Z,1
2022-12-31T04:09:53.616Z,1
2022-12-31T04:14:00.739Z,0.9
2022-12-31T04:20:11.416Z,0.9
2022-12-31T04:22:18.019Z,0.7
2022-12-31T04:24:21.550Z,0.8
2022-12-31T04:26:25.115Z,0.7
2022-12-31T04:28:28.677Z,0.8
2022-12-31T04:30:32.256Z,0.9
2022-12-31T04:32:35.783Z,0.5
2022-12-31T04:34:39.373Z,0.8
2022-12-31T04:36:45.990Z,0.9
2022-12-31T04:38:49.554Z,0.5
2022-12-31T04:40:53.132Z,0.4
2022-12-31T04:42:56.711Z,0.6
2022-12-31T04:45:00.319Z,0.7
2022-12-31T04:47:03.807Z,0.4
2022-12-31T04:49:07.408Z,0.5
2022-12-31T04:51:15.558Z,0.7
2022-12-31T04:55:22.637Z,0.5
2022-12-31T04:57:46.482Z,0.6
2022-12-31T04:59:50.041Z,0.6
2022-12-31T05:01:53.737Z,0.5
2022-12-31T05:04:00.218Z,0.7
2022-12-31T05:06:03.754Z,0.7
2022-12-31T05:10:10.893Z,0.8
2022-12-31T05:12:14.464Z,1
2022-12-31T05:14:18.020Z,0.8
2022-12-31T05:16:21.599Z,0.8
2022-12-31T05:20:31.755Z,0.9
2022-12-31T05:22:35.291Z,0.8
2022-12-31T05:24:38.880Z,0.8
2022-12-31T05:26:42.444Z,1.1
2022-12-31T05:28:45.971Z,1.1
2022-12-31T05:30:49.633Z,0.8
2022-12-31T05:32:56.203Z,1.1
2022-12-31T05:41:10.419Z,1.1
2022-12-31T05:47:24.167Z,0.9
2022-12-31T05:49:27.710Z,0.9
2022-12-31T05:51:31.231Z,0.7
2022-12-31T05:52:34.565Z,0.7
2022-12-31T05:54:38.122Z,0.6
2022-12-31T05:56:41.687Z,0.5
2022-12-31T05:58:45.263Z,0.5
2022-12-31T06:00:51.888Z,0.5
2022-12-31T06:02:55.461Z,0.5
2022-12-31T06:04:59.010Z,0.6
2022-12-31T06:07:02.632Z,0.4
2022-12-31T06:09:06.164Z,0.5
2022-12-31T06:11:09.663Z,0.3
2022-12-31T06:13:13.255Z,0.3
2022-12-31T06:15:19.904Z,0.2
2022-12-31T06:17:23.440Z,0.2
2022-12-31T06:19:26.998Z,0.4
2022-12-31T06:21:30.603Z,0.4
2022-12-31T06:23:34.127Z,0.4
2022-12-31T06:25:37.699Z,0.3
2022-12-31T06:27:41.255Z,0.6
2022-12-31T06:29:47.906Z,0.4
2022-12-31T06:31:51.403Z,0.5
2022-12-31T06:33:54.989Z,0.6
2022-12-31T06:35:58.616Z,0.8
2022-12-31T06:38:02.122Z,0.7
2022-12-31T06:40:05.688Z,0.7
2022-12-31T06:42:09.214Z,0.7
2022-12-31T06:44:15.819Z,1.1
2022-12-31T06:46:19.387Z,1.1
2022-12-31T06:48:22.894Z,0.9
2022-12-31T06:51:29.756Z,1.5
2022-12-31T07:01:50.724Z,1.5
2022-12-31T07:03:54.116Z,1.9
2022-12-31T07:08:01.240Z,2.8
2022-12-31T07:12:11.600Z,2.6
2022-12-31T07:16:18.533Z,1.9
2022-12-31T07:18:22.026Z,1.5
2022-12-31T07:20:25.561Z,1.8
2022-12-31T07:22:29.139Z,1.4
2022-12-31T07:26:39.287Z,2
2022-12-31T07:28:42.800Z,1.6
2022-12-31T07:32:49.916Z,1.5
2022-12-31T07:34:53.426Z,1
2022-12-31T07:39:00.529Z,1.5
2022-12-31T07:41:09.732Z,1.6
2022-12-31T07:43:10.648Z,1.5
2022-12-31T07:45:14.206Z,2
2022-12-31T07:46:17.473Z,1.6
2022-12-31T07:48:20.976Z,1.7
2022-12-31T07:50:24.529Z,1.4
2022-12-31T07:52:28.032Z,1.6
2022-12-31T07:54:34.659Z,1.8
2022-12-31T07:56:38.197Z,1.5
2022-12-31T07:58:41.694Z,1.5
2022-12-31T08:00:45.258Z,1.5
2022-12-31T08:02:48.836Z,1.7
2022-12-31T08:04:52.273Z,1.6
2022-12-31T08:06:55.814Z,1.3
2022-12-31T08:09:02.430Z,1.7
2022-12-31T08:11:05.939Z,1.3
2022-12-31T08:13:09.418Z,1.4
2022-12-31T08:15:12.957Z,1.7
2022-12-31T08:17:16.530Z,1.6
2022-12-31T08:19:19.994Z,1.5
2022-12-31T08:21:23.562Z,1.6
2022-12-31T08:23:30.146Z,2.2
2022-12-31T08:27:37.204Z,1.6
2022-12-31T08:31:44.337Z,1.3
2022-12-31T08:35:51.279Z,1.8
2022-12-31T08:40:01.383Z,1
2022-12-31T08:42:04.910Z,1.5
2022-12-31T08:44:29.224Z,1.3
2022-12-31T08:46:32.693Z,1.3
2022-12-31T08:48:36.201Z,1.2
2022-12-31T08:50:40.717Z,1.5
2022-12-31T08:52:44.206Z,1.7
2022-12-31T08:54:47.738Z,1.2
2022-12-31T08:56:51.259Z,1.3
2022-12-31T08:58:54.768Z,0.9
2022-12-31T09:00:58.490Z,1.4
2022-12-31T09:03:01.807Z,1.4
2022-12-31T09:05:08.455Z,1.6
2022-12-31T09:07:11.960Z,1.2
2022-12-31T09:09:15.474Z,0.9
2022-12-31T09:11:22.781Z,1
2022-12-31T09:13:22.488Z,1
2022-12-31T09:15:26.003Z,0.8
2022-12-31T09:17:29.525Z,0.7
2022-12-31T09:19:36.121Z,0.6
2022-12-31T09:21:39.636Z,0.5
2022-12-31T09:23:43.233Z,0.6
2022-12-31T09:25:46.708Z,0.6
2022-12-31T09:27:50.250Z,0.6
2022-12-31T09:29:53.782Z,0.6
2022-12-31T09:34:03.885Z,0.8
2022-12-31T09:36:07.430Z,0.7
2022-12-31T09:38:11.871Z,1
2022-12-31T09:39:14.249Z,0.7
2022-12-31T09:45:24.837Z,1.3
2022-12-31T09:49:34.960Z,1.4
2022-12-31T09:51:38.483Z,0.8
2022-12-31T09:53:42.059Z,1.3
2022-12-31T09:55:45.544Z,1.2
2022-12-31T09:57:49.042Z,1.4
2022-12-31T09:59:52.581Z,1.4
2022-12-31T10:01:59.429Z,1.8
2022-12-31T10:04:02.661Z,1.2
2022-12-31T10:06:06.192Z,1.5
2022-12-31T10:10:13.212Z,0.9
2022-12-31T10:12:16.682Z,0.9
2022-12-31T10:14:20.226Z,0.8
2022-12-31T10:16:26.853Z,1
2022-12-31T10:18:30.312Z,1
2022-12-31T10:20:33.860Z,1.7
2022-12-31T10:22:37.324Z,1.5
2022-12-31T10:24:40.839Z,0.8
2022-12-31T10:26:48.459Z,1
2022-12-31T10:28:47.878Z,1
2022-12-31T10:30:54.516Z,1.2
2022-12-31T10:32:57.966Z,2.3
2022-12-31T10:35:01.462Z,5.3
2022-12-31T10:36:04.747Z,2.2
2022-12-31T10:38:08.317Z,1.5
2022-12-31T10:40:11.774Z,1.3
2022-12-31T10:42:15.280Z,1.1
2022-12-31T10:44:21.856Z,1.4
2022-12-31T10:46:26.935Z,1.1
2022-12-31T10:48:30.375Z,1.2
2022-12-31T10:50:33.855Z,1.4
2022-12-31T10:52:41.664Z,1.3
2022-12-31T10:54:40.879Z,1.3
2022-12-31T11:00:54.506Z,2.2
2022-12-31T11:02:58.141Z,1.6
2022-12-31T11:05:01.464Z,1.6
2022-12-31T11:07:04.977Z,1.2
2022-12-31T11:09:08.470Z,1.4
2022-12-31T11:11:12.046Z,0.9
2022-12-31T11:13:18.540Z,1.4
2022-12-31T11:15:22.094Z,1.4
2022-12-31T11:17:25.540Z,1.8
2022-12-31T11:19:29.027Z,1.8
2022-12-31T11:21:34.279Z,1.6
2022-12-31T11:23:36.047Z,1.6
2022-12-31T11:25:39.551Z,1.8
2022-12-31T11:27:49.069Z,1.8
2022-12-31T11:29:49.595Z,1.1
2022-12-31T11:31:53.135Z,2
2022-12-31T11:34:59.891Z,1.5
2022-12-31T11:37:03.401Z,1.8
2022-12-31T11:39:06.868Z,1.4
2022-12-31T11:41:13.411Z,2.1
2022-12-31T11:43:16.897Z,1.7
2022-12-31T11:45:20.412Z,1.9
2022-12-31T11:47:23.966Z,1.2
2022-12-31T11:49:27.365Z,1.3
2022-12-31T11:51:30.844Z,1.5
2022-12-31T11:53:34.363Z,1.7
2022-12-31T11:55:40.933Z,1.5
2022-12-31T11:57:44.396Z,1.3
2022-12-31T11:59:47.895Z,1.5
2022-12-31T12:01:51.419Z,3
2022-12-31T12:03:54.920Z,1.7
2022-12-31T12:05:58.406Z,1.4
2022-12-31T12:08:01.887Z,2.2
2022-12-31T12:10:08.459Z,1.2
2022-12-31T12:12:11.930Z,2.4
2022-12-31T12:14:15.404Z,2.1
2022-12-31T12:18:22.373Z,6.4
2022-12-31T12:20:25.866Z,2.7
2022-12-31T12:22:29.341Z,1.9
2022-12-31T12:24:35.956Z,1.4
2022-12-31T12:26:39.435Z,1.6
2022-12-31T12:28:44.493Z,1.8
2022-12-31T12:33:04.301Z,1.8
2022-12-31T12:35:07.780Z,2.3
2022-12-31T12:37:14.333Z,2.5
2022-12-31T12:39:17.819Z,4.1
2022-12-31T12:49:35.261Z,2.1
2022-12-31T12:53:45.380Z,2.7
2022-12-31T12:57:52.241Z,2.2
2022-12-31T12:59:55.745Z,1.1
2022-12-31T13:01:59.476Z,2.3
2022-12-31T13:04:33.578Z,1.8
2022-12-31T13:06:09.302Z,1.5
2022-12-31T13:08:12.810Z,1.6
2022-12-31T13:10:16.279Z,2.2
2022-12-31T13:12:19.771Z,1.5
2022-12-31T13:14:23.258Z,1.5
2022-12-31T13:20:36.816Z,2.5
2022-12-31T13:22:40.299Z,2.2
2022-12-31T13:24:43.775Z,2.2
2022-12-31T13:25:47.079Z,2.1
2022-12-31T13:27:50.551Z,1.8
2022-12-31T13:29:54.077Z,1.7
2022-12-31T13:31:57.602Z,1.6
2022-12-31T13:34:04.151Z,1.9
2022-12-31T13:36:07.578Z,1.4
2022-12-31T13:38:11.065Z,2
2022-12-31T13:40:14.574Z,1.5
2022-12-31T13:42:18.037Z,2.3
2022-12-31T13:44:21.535Z,1.8
2022-12-31T13:46:25.042Z,1.3
2022-12-31T13:50:35.073Z,1.4
2022-12-31T13:52:38.521Z,2.2
2022-12-31T13:54:42.029Z,2
2022-12-31T13:56:45.548Z,3.6
2022-12-31T13:58:49.026Z,2.8
2022-12-31T14:00:52.545Z,1.2
2022-12-31T14:02:59.195Z,2.3
2022-12-31T14:05:02.622Z,1.7
2022-12-31T14:07:06.079Z,2.7
2022-12-31T14:09:09.568Z,2.3
2022-12-31T14:11:13.039Z,2.3
2022-12-31T14:13:16.554Z,2.2
2022-12-31T14:15:20.042Z,2.4
2022-12-31T14:17:26.639Z,1.9
2022-12-31T14:19:33.292Z,3.4
2022-12-31T14:21:33.663Z,3.2
2022-12-31T14:22:36.922Z,2.2
2022-12-31T14:24:40.444Z,3.1
2022-12-31T14:26:43.913Z,5.1
2022-12-31T14:28:47.420Z,2.8
2022-12-31T14:30:54.001Z,2.8
2022-12-31T14:39:07.980Z,2.1
2022-12-31T14:41:11.534Z,2.2
2022-12-31T14:43:14.999Z,2.5
2022-12-31T14:45:21.589Z,2.5
2022-12-31T14:47:25.076Z,2
2022-12-31T14:49:28.558Z,2.7
2022-12-31T14:51:32.083Z,2.5
2022-12-31T14:53:35.551Z,2.3
2022-12-31T14:55:39.081Z,2.3
2022-12-31T14:58:17.161Z,2.5
2022-12-31T14:59:49.124Z,2.5
2022-12-31T15:01:52.691Z,4.2
2022-12-31T15:03:56.074Z,3.6
2022-12-31T15:05:59.529Z,1.9
2022-12-31T15:08:03.048Z,3.1
2022-12-31T15:10:06.534Z,2.4
2022-12-31T15:12:10.033Z,3.5
2022-12-31T15:14:16.593Z,2.7
2022-12-31T15:16:20.133Z,2.4
2022-12-31T15:18:23.534Z,3.6
2022-12-31T15:19:26.858Z,2.8
2022-12-31T15:21:30.329Z,2.7
2022-12-31T15:23:33.833Z,2.9
2022-12-31T15:25:41.275Z,2.9
2022-12-31T15:27:43.845Z,2.7
2022-12-31T15:29:47.344Z,3.5
2022-12-31T15:33:54.320Z,4.9
2022-12-31T15:40:04.811Z,2.4
2022-12-31T15:42:37.348Z,3.1
2022-12-31T15:44:14.827Z,2.8
2022-12-31T15:46:18.351Z,3.6
2022-12-31T15:50:25.288Z,3.5
2022-12-31T15:54:32.269Z,3.6
2022-12-31T15:58:42.317Z,6.4
2022-12-31T16:00:45.790Z,3.6
2022-12-31T16:02:49.355Z,4.1
2022-12-31T16:04:52.719Z,3.6
2022-12-31T16:11:06.234Z,6.5
2022-12-31T16:13:09.663Z,9.8
2022-12-31T16:17:31.040Z,7.9
2022-12-31T16:21:37.915Z,4.8
2022-12-31T16:23:44.480Z,3.5
2022-12-31T16:25:47.922Z,4.8
2022-12-31T16:27:51.355Z,4.4
2022-12-31T16:29:56.123Z,7.9
2022-12-31T16:31:58.251Z,8.6
2022-12-31T16:34:01.685Z,8.3
2022-12-31T16:36:05.132Z,7.1
2022-12-31T16:40:15.141Z,6.7
2022-12-31T16:46:27.246Z,6.6
2022-12-31T16:50:33.784Z,10.9
2022-12-31T16:54:43.770Z,10.2
2022-12-31T16:56:47.202Z,7.5
2022-12-31T17:00:54.086Z,11.4
2022-12-31T17:07:07.547Z,5.2
2022-12-31T17:09:11.014Z,3.6
2022-12-31T17:12:17.707Z,6.2
2022-12-31T17:14:21.169Z,5.7
2022-12-31T17:16:24.703Z,5.9
2022-12-31T17:18:28.062Z,5
2022-12-31T17:20:34.634Z,6.1
2022-12-31T17:22:38.068Z,6.7
2022-12-31T17:24:41.545Z,10.1
2022-12-31T17:26:44.991Z,4.6
2022-12-31T17:28:48.445Z,4.7
2022-12-31T17:30:51.894Z,5.4
2022-12-31T17:32:55.367Z,4.8
2022-12-31T17:35:01.931Z,7.2
2022-12-31T17:37:05.367Z,7.1
2022-12-31T17:39:08.782Z,4.3
2022-12-31T17:41:12.251Z,4.2
2022-12-31T17:43:15.715Z,10
2022-12-31T17:45:19.204Z,7.5
2022-12-31T17:47:22.629Z,7.4
2022-12-31T17:49:29.168Z,6.4
2022-12-31T17:51:32.680Z,5
2022-12-31T17:53:36.114Z,4.9
2022-12-31T17:55:39.547Z,5.6
2022-12-31T17:57:43.016Z,5
2022-12-31T17:59:46.510Z,5.8
2022-12-31T18:01:50.168Z,8
2022-12-31T18:03:56.577Z,11.4
2022-12-31T18:06:00.044Z,13
2022-12-31T18:08:03.500Z,8.2
2022-12-31T18:09:06.808Z,6.8
2022-12-31T18:15:17.158Z,5.8
2022-12-31T18:20:02.705Z,4.6
2022-12-31T18:21:30.689Z,5.1
2022-12-31T18:23:34.148Z,5.4
2022-12-31T18:27:41.165Z,4.5
2022-12-31T18:29:44.597Z,5.6
2022-12-31T18:31:51.220Z,4.6
2022-12-31T18:33:54.635Z,4.3
2022-12-31T18:36:08.640Z,6.8
2022-12-31T18:38:01.740Z,5.1
2022-12-31T18:40:05.029Z,6
2022-12-31T18:42:08.521Z,6.2
2022-12-31T18:44:11.978Z,6.1
2022-12-31T18:46:18.652Z,6.4
2022-12-31T18:48:22.041Z,6.3
2022-12-31T18:52:28.966Z,5.2
2022-12-31T18:54:32.409Z,11.7
2022-12-31T18:56:35.901Z,4.7
2022-12-31T18:58:39.373Z,4.7
2022-12-31T19:00:45.965Z,4.9
2022-12-31T19:02:49.395Z,4.4
2022-12-31T19:07:59.585Z,5.6
2022-12-31T19:10:03.033Z,6.5
2022-12-31T19:14:13.032Z,5.4
2022-12-31T19:16:16.537Z,4.7
2022-12-31T19:18:19.945Z,6.7
2022-12-31T19:22:26.840Z,6.1
2022-12-31T19:24:30.382Z,6
2022-12-31T19:28:40.334Z,4.5
2022-12-31T19:32:47.298Z,4.3
2022-12-31T19:34:50.763Z,6.1
2022-12-31T19:38:57.667Z,6
2022-12-31T19:41:01.148Z,5.5
2022-12-31T19:43:07.734Z,5.3
2022-12-31T19:45:11.187Z,4.1
2022-12-31T19:47:14.638Z,3.9
2022-12-31T19:49:18.209Z,9.1
2022-12-31T19:51:21.588Z,6.3
2022-12-31T19:53:25.008Z,4.7
2022-12-31T19:55:28.473Z,4.1
2022-12-31T19:57:35.037Z,11.5
2022-12-31T19:59:38.595Z,4.7
2022-12-31T20:01:42.138Z,6.5
2022-12-31T20:04:04.130Z,5.1
2022-12-31T20:06:07.643Z,5.2
2022-12-31T20:08:11.046Z,4.1
2022-12-31T20:10:17.629Z,4.6
2022-12-31T20:12:21.129Z,4.7
2022-12-31T20:16:28.116Z,11.9
2022-12-31T20:24:45.030Z,9.4
2022-12-31T20:26:48.508Z,6.3
2022-12-31T20:28:51.987Z,4.4
2022-12-31T20:30:55.465Z,6
2022-12-31T20:32:58.918Z,5.5
2022-12-31T20:35:02.435Z,5.8
2022-12-31T20:37:05.875Z,7.7
2022-12-31T20:39:12.473Z,7.7
2022-12-31T20:41:15.952Z,60.3
2022-12-31T20:43:19.408Z,10.3
2022-12-31T20:45:22.865Z,7.6
2022-12-31T20:47:26.377Z,7.7
2022-12-31T20:49:52.551Z,9.6
2022-12-31T20:51:33.348Z,12.9
2022-12-31T20:53:39.933Z,6.5
2022-12-31T20:55:43.414Z,6.4
2022-12-31T20:57:46.879Z,9.7
2022-12-31T21:03:08.119Z,5.8
2022-12-31T21:05:00.761Z,5.8
2022-12-31T21:07:07.170Z,6.9
2022-12-31T21:09:10.654Z,6.4
2022-12-31T21:11:14.102Z,9
2022-12-31T21:13:17.626Z,4.8
2022-12-31T21:15:21.083Z,4.9
2022-12-31T21:17:24.548Z,10.1
2022-12-31T21:19:27.926Z,9.8
2022-12-31T21:23:37.972Z,6.3
2022-12-31T21:30:17.080Z,12.1
2022-12-31T21:31:51.793Z,5.7
2022-12-31T21:38:05.267Z,7.7
2022-12-31T21:44:15.677Z,5.1
2022-12-31T21:46:19.155Z,6.4
2022-12-31T21:50:29.114Z,6
2022-12-31T21:54:36.019Z,5.7
2022-12-31T21:55:39.310Z,6.7
2022-12-31T21:58:15.565Z,6.9
2022-12-31T21:59:46.664Z,5.9
2022-12-31T22:01:49.821Z,5.7
2022-12-31T22:03:56.293Z,5.8
2022-12-31T22:05:59.792Z,5
2022-12-31T22:08:03.263Z,6
2022-12-31T22:10:06.743Z,4.3
2022-12-31T22:12:10.214Z,6.1
2022-12-31T22:14:13.714Z,7.5
2022-12-31T22:16:17.448Z,6
2022-12-31T22:18:23.781Z,8.7
2022-12-31T22:20:28.116Z,6.2
2022-12-31T22:22:30.776Z,5.1
2022-12-31T22:24:34.266Z,5.1
2022-12-31T22:26:41.684Z,6.2
2022-12-31T22:28:41.247Z,7.4
2022-12-31T22:30:44.761Z,7.4
2022-12-31T22:32:51.331Z,6.3
2022-12-31T22:34:54.818Z,5.3
2022-12-31T22:36:58.862Z,4.9
2022-12-31T22:41:06.803Z,5.1
2022-12-31T22:43:10.349Z,5
2022-12-31T22:47:20.350Z,5.8
2022-12-31T22:52:30.685Z,7.7
2022-12-31T22:56:37.664Z,6.2
2022-12-31T23:00:47.761Z,6.4
2022-12-31T23:02:51.284Z,10.3
2022-12-31T23:05:15.344Z,47.3
2022-12-31T23:06:58.245Z,32.1
2022-12-31T23:13:08.694Z,36.2
2022-12-31T23:15:15.303Z,47.2
2022-12-31T23:17:29.932Z,69.4
2022-12-31T23:19:22.323Z,53.6
2022-12-31T23:21:25.776Z,55
2022-12-31T23:23:29.270Z,48.8
2022-12-31T23:25:32.782Z,29.8
2022-12-31T23:27:36.298Z,25.8
2022-12-31T23:29:47.155Z,42.9
2022-12-31T23:31:46.434Z,27.4
2022-12-31T23:33:49.880Z,26.3
2022-12-31T23:35:53.383Z,19.8
2022-12-31T23:37:56.910Z,19.9
2022-12-31T23:40:00.431Z,15.1
2022-12-31T23:42:03.948Z,14.5
2022-12-31T23:48:17.505Z,11.5
2022-12-31T23:50:35.656Z,13.5
2022-12-31T23:52:39.176Z,11.4
2022-12-31T23:54:42.641Z,12.9
2022-12-31T23:56:49.230Z,11.5
2022-12-31T23:58:52.713Z,11.5
